Time;durP1;ratioP1;P1;durP2;ratioP2;P2;SDS_P1;SDS_P2;PMS_P1;PMS_P2;Temp;Humidity;BMP_temperature;BMP_pressure;BME280_temperature;BME280_humidity;BME280_pressure;Samples;Min_cycle;Max_cycle;Signal;HPM_P1;HPM_P2
2022/09/29 00:02:05;;;;;;;5.30;4.53;;;;;;;17.92;48.46;91975.41;4982125;28;20058;-92
2022/09/29 00:04:31;;;;;;;5.13;4.00;;;;;;;17.90;48.44;91980.69;4982336;28;20046;-92
2022/09/29 00:06:56;;;;;;;6.57;4.20;;;;;;;17.90;48.60;91977.94;4955086;28;20043;-92
2022/09/29 00:09:22;;;;;;;6.10;4.07;;;;;;;17.89;48.33;91977.22;4947018;28;20055;-92
2022/09/29 00:11:54;;;;;;;6.43;4.55;;;;;;;17.88;48.44;91975.03;4964155;28;20067;-92
2022/09/29 00:14:20;;;;;;;4.97;3.85;;;;;;;17.89;48.37;91985.44;4923935;29;20080;-93
2022/09/29 00:16:46;;;;;;;6.30;4.28;;;;;;;17.89;48.32;91981.97;4892641;29;20040;-92
2022/09/29 00:19:12;;;;;;;5.57;4.05;;;;;;;17.89;48.67;91979.97;4912299;29;20031;-92
2022/09/29 00:21:38;;;;;;;5.18;4.10;;;;;;;17.88;48.35;91985.97;4899147;29;20044;-92
2022/09/29 00:24:03;;;;;;;6.45;3.85;;;;;;;17.87;48.45;91977.03;4910871;29;20059;-93
2022/09/29 00:26:29;;;;;;;5.20;3.63;;;;;;;17.87;48.38;91982.50;4894658;29;20028;-92
2022/09/29 00:28:56;;;;;;;5.13;3.58;;;;;;;17.90;48.56;91988.88;4895984;29;20083;-93
2022/09/29 00:31:21;;;;;;;6.40;4.43;;;;;;;17.88;48.35;91983.97;5038801;22;20025;-93
2022/09/29 00:33:47;;;;;;;5.82;3.95;;;;;;;17.87;48.42;91979.75;5080487;28;20082;-92
2022/09/29 00:36:14;;;;;;;5.60;3.90;;;;;;;17.88;48.54;91977.75;5061898;28;20045;-92
2022/09/29 00:38:40;;;;;;;7.60;4.03;;;;;;;17.87;48.60;91976.31;5065639;28;20101;-93
2022/09/29 00:41:10;;;;;;;4.85;3.38;;;;;;;17.87;48.44;91971.56;5049076;28;20044;-92
2022/09/29 00:43:57;;;;;;;4.88;3.78;;;;;;;17.90;48.27;91970.47;5083146;28;20040;-92
2022/09/29 00:46:41;;;;;;;5.20;3.75;;;;;;;17.88;48.45;91977.75;5079966;28;20090;-93
2022/09/29 00:49:10;;;;;;;6.28;3.55;;;;;;;17.88;48.39;91970.28;5067038;28;20036;-94
2022/09/29 00:51:36;;;;;;;4.63;3.35;;;;;;;17.88;48.59;91970.28;5048491;28;20040;-93
2022/09/29 00:54:03;;;;;;;6.95;3.88;;;;;;;17.90;48.27;91959.53;5051850;28;20046;-92
2022/09/29 00:56:29;;;;;;;6.72;3.80;;;;;;;17.92;48.82;91956.28;5068264;28;20043;-93
2022/09/29 00:58:57;;;;;;;5.65;4.18;;;;;;;17.89;48.60;91958.09;5054721;28;20036;-93
2022/09/29 01:01:25;;;;;;;4.68;3.80;;;;;;;17.87;48.53;91962.63;5085427;28;20020;-92
2022/09/29 01:03:52;;;;;;;4.50;3.50;;;;;;;17.87;48.60;91955.16;5057070;22;20101;-93
2022/09/29 01:06:24;;;;;;;5.30;3.28;;;;;;;17.88;48.33;91958.63;5046616;28;20079;-93
2022/09/29 01:08:56;;;;;;;6.22;3.53;;;;;;;17.90;48.64;91959.53;5036119;28;20040;-92
2022/09/29 01:11:22;;;;;;;4.13;3.10;;;;;;;17.88;48.60;91959.34;5071095;28;20045;-93
2022/09/29 01:13:47;;;;;;;4.97;3.80;;;;;;;17.90;48.42;91951.34;5114656;23;20092;-92
2022/09/29 01:16:13;;;;;;;6.18;3.88;;;;;;;17.89;48.83;91954.63;5095553;27;20057;-93
2022/09/29 01:18:38;;;;;;;4.47;3.42;;;;;;;17.86;48.62;91948.22;5111567;27;20306;-93
2022/09/29 01:21:43;;;;;;;4.68;3.30;;;;;;;17.88;48.73;91947.69;5090537;27;20598;-93
2022/09/29 01:24:45;;;;;;;4.25;3.33;;;;;;;17.88;48.60;91950.44;5124216;27;20039;-93
2022/09/29 01:27:15;;;;;;;5.95;3.35;;;;;;;17.87;48.61;91946.97;5123894;27;20099;-93
2022/09/29 01:29:55;;;;;;;3.60;2.95;;;;;;;17.86;48.68;91945.50;5105565;28;20039;-92
2022/09/29 01:32:27;;;;;;;5.25;3.65;;;;;;;17.90;48.52;91951.34;5113380;27;20099;-93
2022/09/29 01:35:47;;;;;;;4.32;3.45;;;;;;;17.86;48.40;91950.97;5116055;27;20037;-92
2022/09/29 01:38:39;;;;;;;4.97;3.30;;;;;;;17.87;48.63;91946.97;5132585;27;20015;-93
2022/09/29 01:41:29;;;;;;;4.35;3.00;;;;;;;17.87;48.26;91957.16;5106347;27;20019;-92
2022/09/29 01:43:58;;;;;;;5.68;3.35;;;;;;;17.87;48.54;91951.69;5145158;27;20126;-92
2022/09/29 01:46:44;;;;;;;4.95;3.17;;;;;;;17.83;48.53;91949.31;5095144;27;20011;-93
2022/09/29 01:49:16;;;;;;;4.05;3.38;;;;;;;17.83;48.36;91949.31;5142578;27;20370;-92
2022/09/29 01:52:05;;;;;;;2.80;2.38;;;;;;;17.86;48.41;91961.16;5124100;27;20035;-93
2022/09/29 01:55:09;;;;;;;3.88;2.90;;;;;;;17.86;48.66;91955.69;5065195;27;20058;-92
2022/09/29 01:57:59;;;;;;;4.47;3.00;;;;;;;17.88;48.63;91955.88;5041620;28;20100;-92
2022/09/29 02:00:25;;;;;;;4.05;2.72;;;;;;;17.86;48.31;91959.16;5022215;28;20045;-92
2022/09/29 02:03:02;;;;;;;4.75;2.75;;;;;;;17.84;48.56;91952.78;5005536;28;20060;-93
2022/09/29 02:05:50;;;;;;;4.70;3.50;;;;;;;17.88;48.71;91944.97;5010035;28;20021;-92
2022/09/29 02:08:26;;;;;;;4.13;3.15;;;;;;;17.86;48.72;91956.44;5006034;28;20029;-92
2022/09/29 02:10:57;;;;;;;5.05;3.30;;;;;;;17.84;48.76;91953.50;4990923;28;20025;-92
2022/09/29 02:13:22;;;;;;;3.90;2.90;;;;;;;17.84;48.18;91952.78;5010515;28;20046;-92
2022/09/29 02:15:51;;;;;;;4.00;2.90;;;;;;;17.88;48.40;91958.63;4989624;28;20041;-93
2022/09/29 02:18:20;;;;;;;3.85;2.97;;;;;;;17.85;48.75;91954.25;4972423;28;20101;-93
2022/09/29 02:20:46;;;;;;;3.67;2.97;;;;;;;17.80;48.89;91953.84;4947359;28;20079;-93
2022/09/29 02:23:14;;;;;;;4.80;2.90;;;;;;;17.84;48.75;91953.50;4928441;28;20043;-92
2022/09/29 02:25:40;;;;;;;3.50;2.92;;;;;;;17.84;48.51;91952.78;4895402;29;20053;-92
2022/09/29 02:28:06;;;;;;;2.95;2.45;;;;;;;17.84;49.05;91950.78;4887419;29;20416;-93
2022/09/29 02:30:31;;;;;;;3.03;2.38;;;;;;;17.83;48.75;91937.66;4895895;28;20064;-93
2022/09/29 02:32:56;;;;;;;3.97;3.10;;;;;;;17.83;48.68;91927.44;4948178;28;20043;-93
2022/09/29 02:35:23;;;;;;;4.30;2.80;;;;;;;17.83;48.51;91932.91;4959745;29;20043;-93
2022/09/29 02:37:53;;;;;;;4.63;3.20;;;;;;;17.85;48.80;91935.09;4945093;29;20043;-92
2022/09/29 02:40:27;;;;;;;3.97;2.80;;;;;;;17.83;48.35;91935.66;4978995;28;20057;-93
2022/09/29 02:42:57;;;;;;;3.53;2.20;;;;;;;17.83;48.84;91932.91;4962769;28;20070;-93
2022/09/29 02:45:40;;;;;;;3.88;2.78;;;;;;;17.82;48.30;91931.44;5157448;22;20044;-93
2022/09/29 02:48:28;;;;;;;2.80;2.15;;;;;;;17.85;48.69;91938.56;5101626;28;20040;-93
2022/09/29 02:51:17;;;;;;;3.38;2.50;;;;;;;17.84;48.62;91936.38;5086855;28;20035;-92
2022/09/29 02:54:04;;;;;;;3.78;2.40;;;;;;;17.84;48.19;91939.84;5084095;28;20036;-93
2022/09/29 02:56:48;;;;;;;4.70;2.97;;;;;;;17.83;48.45;91929.44;5087608;28;20071;-93
2022/09/29 02:59:27;;;;;;;2.70;2.33;;;;;;;17.80;48.51;91918.31;5082358;28;20241;-92
2022/09/29 03:01:54;;;;;;;4.28;2.30;;;;;;;17.81;48.54;91925.25;5058545;28;20048;-93
2022/09/29 03:04:21;;;;;;;3.40;2.50;;;;;;;17.79;48.39;91922.31;5064066;22;20051;-93
2022/09/29 03:06:46;;;;;;;3.13;2.40;;;;;;;17.80;48.79;91926.53;5074126;22;20044;-92
2022/09/29 03:09:11;;;;;;;2.70;2.25;;;;;;;17.79;48.50;91930.53;5144140;22;20050;-92
2022/09/29 03:11:37;;;;;;;3.45;2.42;;;;;;;17.80;48.52;91934.72;5049456;28;20054;-92
2022/09/29 03:14:05;;;;;;;3.92;2.50;;;;;;;17.80;48.23;91928.53;5047985;28;20089;-92
2022/09/29 03:16:31;;;;;;;3.17;2.17;;;;;;;17.81;48.63;91938.19;5064968;28;20032;-92
2022/09/29 03:18:56;;;;;;;3.65;2.40;;;;;;;17.79;48.58;91925.06;5046989;28;20097;-93
2022/09/29 03:21:23;;;;;;;2.88;2.53;;;;;;;17.80;48.46;91931.25;5078707;23;20055;-92
2022/09/29 03:23:49;;;;;;;3.35;2.20;;;;;;;17.79;48.55;91930.53;5052316;22;20052;-92
2022/09/29 03:26:37;;;;;;;3.55;2.30;;;;;;;17.80;48.94;91932.00;5035674;28;20033;-93
2022/09/29 03:29:03;;;;;;;2.97;1.88;;;;;;;17.78;48.51;91918.13;4985051;28;20073;-92
2022/09/29 03:31:28;;;;;;;3.30;2.30;;;;;;;17.80;48.43;91914.84;4999132;28;20512;-92
2022/09/29 03:33:54;;;;;;;2.97;2.17;;;;;;;17.81;48.43;91917.06;5000271;28;20041;-93
2022/09/29 03:36:21;;;;;;;4.30;2.20;;;;;;;17.80;48.55;91912.13;5039525;28;20061;-92
2022/09/29 03:38:47;;;;;;;3.45;2.58;;;;;;;17.80;48.38;91915.59;5019782;28;20045;-92
2022/09/29 03:41:15;;;;;;;3.38;2.40;;;;;;;17.84;49.29;91909.78;5000464;28;20064;-93
2022/09/29 03:43:40;;;;;;;2.60;2.35;;;;;;;17.82;48.84;91915.06;5001438;28;20042;-94
2022/09/29 03:46:06;;;;;;;4.22;2.40;;;;;;;17.83;48.54;91913.78;4968372;28;20277;-91
2022/09/29 03:48:33;;;;;;;2.58;1.88;;;;;;;17.84;48.47;91909.03;4999601;28;20472;-89
2022/09/29 03:50:59;;;;;;;2.83;2.30;;;;;;;17.83;48.52;91918.50;4982040;28;20063;-92
2022/09/29 03:53:24;;;;;;;3.78;2.17;;;;;;;17.84;48.31;91919.97;4989610;28;20044;-92
2022/09/29 03:55:50;;;;;;;3.13;2.03;;;;;;;17.83;48.67;91924.72;4998471;28;20104;-92
2022/09/29 03:58:16;;;;;;;2.67;2.13;;;;;;;17.86;48.42;91914.69;5001057;28;20057;-94
2022/09/29 04:00:41;;;;;;;9.95;2.83;;;;;;;17.84;48.37;91919.97;5032824;28;20044;-94
2022/09/29 04:03:07;;;;;;;4.32;2.63;;;;;;;17.70;46.41;91922.13;5045081;28;20032;-95
2022/09/29 04:05:37;;;;;;;3.55;3.00;;;;;;;17.62;45.31;91918.59;5060094;28;20176;-94
2022/09/29 04:08:08;;;;;;;5.93;3.38;;;;;;;17.56;44.97;91926.97;5018058;28;20041;-94
2022/09/29 04:10:35;;;;;;;13.70;3.75;;;;;;;17.47;44.97;91925.47;5028715;28;20055;-94
2022/09/29 04:13:00;;;;;;;8.38;4.10;;;;;;;17.42;44.50;91925.63;5009303;28;20072;-93
2022/09/29 04:15:26;;;;;;;10.65;3.42;;;;;;;17.38;44.58;91934.19;5013727;28;20047;-91
2022/09/29 04:17:52;;;;;;;6.78;3.40;;;;;;;17.33;44.73;91932.31;5031894;28;20184;-92
2022/09/29 04:20:18;;;;;;;4.55;3.50;;;;;;;17.35;44.91;91932.53;5028160;28;20037;-92
2022/09/29 04:22:43;;;;;;;4.88;3.33;;;;;;;17.32;44.53;91933.59;5033076;28;20045;-94
2022/09/29 04:25:09;;;;;;;4.82;3.13;;;;;;;17.31;44.95;91939.63;5009406;28;20048;-92
2022/09/29 04:27:44;;;;;;;3.08;2.78;;;;;;;17.23;45.00;91938.84;5041601;28;20051;-93
2022/09/29 04:30:11;;;;;;;9.32;3.70;;;;;;;17.18;45.05;91937.00;5043683;28;20061;-92
2022/09/29 04:32:38;;;;;;;45.75;31.35;;;;;;;17.12;45.08;91937.88;5062337;28;20045;-93
2022/09/29 04:35:04;;;;;;;51.33;41.50;;;;;;;17.10;45.29;91945.84;5034264;28;20087;-91
2022/09/29 04:37:30;;;;;;;14.27;8.32;;;;;;;17.12;45.13;91945.31;5062869;28;20577;-90
2022/09/29 04:39:56;;;;;;;22.35;14.57;;;;;;;17.15;44.86;91952.44;5026035;28;20135;-92
2022/09/29 04:42:21;;;;;;;17.75;14.52;;;;;;;17.12;45.48;91948.78;5027078;28;20043;-89
2022/09/29 04:44:47;;;;;;;19.20;7.47;;;;;;;17.07;44.88;91957.16;5023784;28;20041;-85
2022/09/29 04:47:12;;;;;;;8.20;5.45;;;;;;;17.06;44.58;91956.41;5023148;28;20131;-90
2022/09/29 04:49:38;;;;;;;16.85;7.28;;;;;;;17.00;44.86;91964.00;5041734;28;20046;-90
2022/09/29 04:52:03;;;;;;;22.48;6.82;;;;;;;17.07;45.16;91957.88;5067826;28;20047;-93
2022/09/29 04:54:31;;;;;;;16.20;7.90;;;;;;;17.12;45.04;91958.97;5060599;28;20041;-93
2022/09/29 04:56:56;;;;;;;15.27;10.00;;;;;;;17.17;44.79;91943.72;5049285;28;20037;-92
2022/09/29 04:59:22;;;;;;;17.42;10.65;;;;;;;17.20;45.00;91948.84;5040974;28;20059;-93
2022/09/29 05:01:48;;;;;;;27.40;14.50;;;;;;;17.23;45.09;91952.50;5041932;28;20049;-89
2022/09/29 05:04:13;;;;;;;26.85;14.48;;;;;;;17.28;44.73;91946.16;5036994;28;20040;-87
2022/09/29 05:06:39;;;;;;;34.50;14.73;;;;;;;17.31;45.17;91951.28;5039878;28;20089;-88
2022/09/29 05:09:05;;;;;;;42.97;16.70;;;;;;;17.30;45.26;91935.44;5037935;28;20097;-87
2022/09/29 05:11:30;;;;;;;50.15;16.63;;;;;;;17.37;45.33;91943.63;5037977;28;20085;-88
2022/09/29 05:13:56;;;;;;;58.85;17.80;;;;;;;17.37;45.39;91951.84;5048990;28;20047;-88
2022/09/29 05:16:21;;;;;;;31.60;12.90;;;;;;;17.38;45.44;91944.38;5037253;28;20044;-87
2022/09/29 05:18:47;;;;;;;37.10;13.95;;;;;;;17.39;45.55;91948.56;5036200;28;20055;-89
2022/09/29 05:21:12;;;;;;;31.30;12.50;;;;;;;17.42;45.66;91950.94;5038664;28;20399;-89
2022/09/29 05:23:38;;;;;;;32.65;12.45;;;;;;;17.42;45.60;91952.94;5042805;28;20052;-89
2022/09/29 05:26:04;;;;;;;33.10;14.25;;;;;;;17.44;45.69;91955.88;5050327;28;20085;-91
2022/09/29 05:28:30;;;;;;;33.60;15.73;;;;;;;17.44;45.84;91958.63;5052951;28;20066;-90
2022/09/29 05:31:03;;;;;;;82.53;24.92;;;;;;;17.46;45.81;91953.34;5042045;28;20810;-88
2022/09/29 05:33:29;;;;;;;159.50;41.13;;;;;;;17.45;46.18;91960.81;5032326;28;20032;-88
2022/09/29 05:35:55;;;;;;;174.15;42.55;;;;;;;17.48;46.25;91959.00;5041817;28;20040;-88
2022/09/29 05:38:21;;;;;;;54.13;22.15;;;;;;;17.49;45.98;91946.81;5039698;28;20054;-87
2022/09/29 05:40:47;;;;;;;71.18;24.33;;;;;;;17.49;45.83;91955.00;5038967;28;20187;-88
2022/09/29 05:43:13;;;;;;;89.93;27.25;;;;;;;17.51;46.13;91946.25;5028764;28;20449;-88
2022/09/29 05:45:39;;;;;;;48.55;19.20;;;;;;;17.38;45.39;91955.28;5035598;28;20064;-86
2022/09/29 05:48:05;;;;;;;52.15;22.05;;;;;;;17.32;44.50;91958.19;5031308;28;20040;-87
2022/09/29 05:50:31;;;;;;;44.45;24.95;;;;;;;17.28;44.44;91963.28;5030709;28;20032;-87
2022/09/29 05:53:02;;;;;;;37.67;20.83;;;;;;;17.31;44.52;91961.47;5071474;28;20479;-89
2022/09/29 05:55:27;;;;;;;40.05;21.50;;;;;;;17.34;44.14;91954.91;5037837;28;20044;-88
2022/09/29 05:57:53;;;;;;;34.42;19.55;;;;;;;17.31;44.47;91943.09;5044282;28;20043;-89
2022/09/29 06:00:18;;;;;;;36.17;19.17;;;;;;;17.34;44.46;91957.63;5038207;28;20048;-85
2022/09/29 06:02:44;;;;;;;73.38;25.13;;;;;;;17.37;44.99;91964.75;5036831;28;20072;-88
2022/09/29 06:05:09;;;;;;;64.22;23.60;;;;;;;17.39;45.13;91962.97;5037527;28;20070;-92
2022/09/29 06:07:35;;;;;;;64.40;24.38;;;;;;;17.45;45.14;91958.06;5037535;28;20043;-88
2022/09/29 06:10:00;;;;;;;81.88;29.65;;;;;;;17.52;44.82;91964.13;5031980;28;20036;-87
2022/09/29 06:12:26;;;;;;;82.20;31.67;;;;;;;17.53;45.48;91958.13;5028755;28;20059;-89
2022/09/29 06:14:51;;;;;;;64.72;26.88;;;;;;;17.56;45.53;91957.00;5050071;28;20040;-87
2022/09/29 06:17:16;;;;;;;58.85;28.42;;;;;;;17.58;45.55;91953.75;5051027;28;20099;-91
2022/09/29 06:19:42;;;;;;;58.85;28.42;;;;;;;17.63;45.31;91961.06;5051289;28;20323;-91
2022/09/29 06:22:07;;;;;;;50.60;21.42;;;;;;;17.65;45.30;91959.28;5050052;28;20055;-92
2022/09/29 06:24:33;;;;;;;29.38;13.27;;;;;;;17.53;44.59;91954.66;5058945;28;20065;-92
2022/09/29 06:26:58;;;;;;;49.60;15.90;;;;;;;17.53;44.88;91952.66;5077246;28;20202;-91
2022/09/29 06:29:24;;;;;;;38.72;15.63;;;;;;;17.54;44.58;91945.91;5032555;28;20096;-91
2022/09/29 06:31:50;;;;;;;52.22;19.48;;;;;;;17.53;44.81;91963.59;5003530;28;20088;-90
2022/09/29 06:34:16;;;;;;;74.10;29.80;;;;;;;17.56;45.03;91962.47;5024161;28;20041;-92
2022/09/29 06:39:27;;;;;;;105.40;46.75;;;;;;;17.58;45.19;91956.47;5038274;28;20143;-94
2022/09/29 06:41:55;;;;;;;102.80;50.47;;;;;;;17.62;45.03;91957.59;5048274;28;20037;-91
2022/09/29 06:44:23;;;;;;;124.50;59.85;;;;;;;17.62;45.11;91954.84;5022800;28;20103;-93
2022/09/29 06:46:50;;;;;;;149.15;64.30;;;;;;;17.64;45.43;91949.63;5025493;28;20060;-90
2022/09/29 06:49:17;;;;;;;146.38;70.13;;;;;;;17.67;44.96;91956.00;5028269;28;20039;-90
2022/09/29 06:51:45;;;;;;;122.38;62.70;;;;;;;17.69;45.74;91967.13;5013146;28;20042;-90
2022/09/29 06:54:19;;;;;;;133.23;66.60;;;;;;;17.70;45.47;91968.59;5010723;28;20100;-92
2022/09/29 06:59:15;;;;;;;147.32;71.03;;;;;;;17.74;45.36;91961.50;5060210;28;20041;-89
2022/09/29 07:01:40;;;;;;;149.40;80.72;;;;;;;17.74;45.49;91958.78;5003737;28;20580;-90
2022/09/29 07:04:06;;;;;;;150.50;82.72;;;;;;;17.74;45.72;91956.03;4998853;28;20470;-93
2022/09/29 07:06:31;;;;;;;172.13;91.60;;;;;;;17.76;45.57;91958.22;5009995;28;20376;-91
2022/09/29 07:08:58;;;;;;;162.02;88.95;;;;;;;17.78;45.56;91958.41;5011591;28;20050;-90
2022/09/29 07:11:23;;;;;;;165.77;91.95;;;;;;;17.79;45.42;91954.41;5014607;28;20098;-91
2022/09/29 07:13:50;;;;;;;167.18;91.10;;;;;;;17.81;45.37;91952.59;5005068;28;20101;-90
2022/09/29 07:16:15;;;;;;;171.10;97.57;;;;;;;17.83;45.71;91949.31;5019518;28;20033;-92
2022/09/29 07:18:41;;;;;;;179.88;96.40;;;;;;;17.83;45.54;91957.50;5021151;28;20029;-89
2022/09/29 07:21:08;;;;;;;213.10;116.32;;;;;;;17.83;45.64;91956.78;4999546;28;20156;-90
2022/09/29 07:23:34;;;;;;;201.43;107.63;;;;;;;17.88;45.52;91961.34;5015538;28;20563;-88
2022/09/29 07:26:00;;;;;;;171.48;84.35;;;;;;;17.82;45.31;91958.78;5004799;28;20040;-92
2022/09/29 07:28:26;;;;;;;132.13;65.18;;;;;;;17.79;44.29;91957.13;5014192;28;20118;-89
2022/09/29 07:31:08;;;;;;;96.90;49.17;;;;;;;17.77;44.70;91963.13;5032234;28;20041;-89
2022/09/29 07:33:33;;;;;;;100.93;48.10;;;;;;;17.80;44.24;91953.13;5017330;28;20102;-89
2022/09/29 07:35:59;;;;;;;113.95;60.15;;;;;;;17.86;44.51;91955.69;5018691;28;20137;-90
2022/09/29 07:38:27;;;;;;;120.35;64.20;;;;;;;17.82;44.53;91953.31;5027123;28;20048;-90
2022/09/29 07:40:53;;;;;;;140.48;70.90;;;;;;;17.85;44.99;91954.97;5019388;28;20044;-91
2022/09/29 07:43:18;;;;;;;177.77;84.68;;;;;;;17.85;45.27;91963.16;5015882;28;20037;-89
2022/09/29 07:45:47;;;;;;;176.25;86.32;;;;;;;17.87;45.56;91966.09;5009299;28;20057;-89
2022/09/29 07:48:13;;;;;;;134.00;69.15;;;;;;;17.91;44.92;91966.47;5032142;28;20056;-89
2022/09/29 07:50:38;;;;;;;95.05;47.83;;;;;;;17.85;44.92;91965.16;5016897;28;20526;-91
2022/09/29 07:53:05;;;;;;;59.97;25.60;;;;;;;17.75;44.39;91965.69;5029452;28;20037;-89
2022/09/29 07:55:30;;;;;;;63.22;25.77;;;;;;;17.77;44.30;91965.88;5002835;28;20037;-89
2022/09/29 07:57:56;;;;;;;46.03;21.13;;;;;;;17.73;44.28;91964.78;5034307;28;20290;-88
2022/09/29 08:00:21;;;;;;;62.63;21.90;;;;;;;17.71;44.61;91965.31;5010802;28;20028;-88
2022/09/29 08:02:46;;;;;;;51.33;19.77;;;;;;;17.72;44.92;91968.78;5017216;28;20448;-88
2022/09/29 08:05:12;;;;;;;47.30;16.40;;;;;;;17.67;44.96;91969.66;5028877;28;20392;-87
2022/09/29 08:07:37;;;;;;;36.55;14.85;;;;;;;17.71;44.37;91973.53;5019496;28;20048;-88
2022/09/29 08:10:04;;;;;;;39.90;16.50;;;;;;;17.75;45.03;91973.88;5028096;28;20261;-89
2022/09/29 08:12:30;;;;;;;26.42;11.20;;;;;;;17.75;45.15;91970.44;4997946;28;20044;-89
2022/09/29 08:14:55;;;;;;;33.45;12.60;;;;;;;17.77;45.14;91963.13;5018594;28;20029;-92
2022/09/29 08:17:24;;;;;;;27.35;11.48;;;;;;;17.75;44.53;91956.78;5013806;28;20071;-89
2022/09/29 08:19:50;;;;;;;28.45;11.10;;;;;;;17.73;43.67;91965.50;5037172;28;20125;-89
2022/09/29 08:22:17;;;;;;;20.65;9.15;;;;;;;17.73;43.75;91957.31;5050716;28;20037;-88
2022/09/29 08:24:44;;;;;;;79.68;19.00;;;;;;;17.72;43.59;91964.06;5005267;28;20041;-89
2022/09/29 08:27:09;;;;;;;76.20;24.35;;;;;;;17.76;43.86;91978.06;5015082;28;20037;-89
2022/09/29 08:29:35;;;;;;;70.80;25.65;;;;;;;17.73;43.74;91986.66;5039198;28;20041;-89
2022/09/29 08:32:00;;;;;;;62.85;21.27;;;;;;;17.74;43.74;91983.38;5013616;28;20041;-90
2022/09/29 08:34:26;;;;;;;54.47;17.92;;;;;;;17.75;43.70;91992.31;5001806;28;20053;-92
2022/09/29 08:36:51;;;;;;;73.80;24.13;;;;;;;17.78;44.46;92010.34;4998915;28;20459;-90
2022/09/29 08:39:19;;;;;;;67.03;24.55;;;;;;;17.80;44.26;92014.00;5011263;28;20492;-90
2022/09/29 08:42:12;;;;;;;37.95;17.55;;;;;;;17.82;44.21;92013.44;4993273;28;20068;-88
2022/09/29 08:44:50;;;;;;;65.95;24.23;;;;;;;17.83;44.48;92003.25;5042923;28;20472;-88
2022/09/29 08:47:36;;;;;;;69.15;25.08;;;;;;;17.87;44.71;92011.84;4993881;28;20285;-88
2022/09/29 08:50:12;;;;;;;70.45;27.42;;;;;;;17.88;44.75;92014.03;5011081;28;20044;-87
2022/09/29 08:52:40;;;;;;;70.95;30.92;;;;;;;17.89;44.97;92009.28;5013100;28;20087;-89
2022/09/29 08:55:15;;;;;;;78.18;34.95;;;;;;;17.90;45.07;92016.97;5013999;28;20048;-88
2022/09/29 08:57:40;;;;;;;79.85;38.15;;;;;;;17.92;45.08;92011.69;5030828;28;20057;-90
2022/09/29 09:00:09;;;;;;;96.35;47.08;;;;;;;17.90;45.24;92002.56;5010319;28;20041;-90
2022/09/29 09:03:06;;;;;;;78.45;44.47;;;;;;;17.94;45.45;92000.94;5011386;28;20044;-91
2022/09/29 09:05:38;;;;;;;88.18;47.40;;;;;;;17.93;45.19;91994.00;5025808;28;20113;-90
2022/09/29 09:08:29;;;;;;;96.50;48.75;;;;;;;17.93;45.19;91996.75;5028569;28;20073;-88
2022/09/29 09:10:55;;;;;;;96.65;48.92;;;;;;;17.98;45.25;92009.50;5045908;28;20033;-89
2022/09/29 09:13:44;;;;;;;94.50;48.22;;;;;;;17.97;45.55;92012.81;5048667;28;20041;-92
2022/09/29 09:16:22;;;;;;;126.30;58.05;;;;;;;17.96;45.55;92014.81;5049734;28;20295;-88
2022/09/29 09:19:02;;;;;;;103.85;50.83;;;;;;;17.95;45.50;92016.06;5036882;28;20065;-88
2022/09/29 09:21:43;;;;;;;97.32;46.13;;;;;;;17.91;44.83;92012.94;5032053;28;20566;-88
2022/09/29 09:24:27;;;;;;;64.05;32.35;;;;;;;17.89;43.86;92029.16;5022116;28;20037;-88
2022/09/29 09:26:52;;;;;;;62.90;30.40;;;;;;;17.88;44.13;92029.69;5032027;28;20549;-87
2022/09/29 09:29:36;;;;;;;49.50;26.60;;;;;;;17.88;43.94;92026.97;5031763;28;20127;-87
2022/09/29 09:32:06;;;;;;;66.90;30.88;;;;;;;17.89;44.62;92026.44;5033096;28;20051;-92
2022/09/29 09:34:42;;;;;;;59.05;28.50;;;;;;;17.92;44.54;92028.09;5033659;28;20652;-88
2022/09/29 09:37:20;;;;;;;55.63;29.42;;;;;;;17.92;44.72;92027.34;5031274;28;20049;-89
2022/09/29 09:39:59;;;;;;;83.53;39.03;;;;;;;17.92;44.79;92024.63;5031986;28;20500;-91
2022/09/29 09:42:26;;;;;;;66.03;35.22;;;;;;;17.92;44.80;92019.16;5027181;28;20567;-86
2022/09/29 09:44:55;;;;;;;72.28;37.03;;;;;;;17.94;45.22;92002.94;5029582;28;20293;-87
2022/09/29 09:47:32;;;;;;;70.53;36.40;;;;;;;17.94;45.00;92002.94;5004289;28;20462;-86
2022/09/29 09:50:03;;;;;;;66.50;35.42;;;;;;;17.95;45.20;91982.53;5044865;28;20053;-86
2022/09/29 09:52:43;;;;;;;60.38;37.47;;;;;;;17.94;45.10;91995.47;5045873;28;20208;-89
2022/09/29 09:55:16;;;;;;;73.00;40.00;;;;;;;17.97;45.76;91990.94;5046318;28;20576;-89
2022/09/29 09:58:00;;;;;;;75.10;41.17;;;;;;;17.99;45.25;91985.63;5032350;28;20077;-90
2022/09/29 10:00:41;;;;;;;97.18;44.55;;;;;;;17.98;45.77;91990.34;5043717;28;20037;-91
2022/09/29 10:03:06;;;;;;;96.82;45.38;;;;;;;17.99;45.54;91988.34;5028597;28;20055;-89
2022/09/29 10:05:38;;;;;;;76.65;41.75;;;;;;;17.98;45.45;91992.34;5013294;28;20037;-89
2022/09/29 10:08:05;;;;;;;79.45;40.97;;;;;;;17.98;45.45;91998.56;5011465;28;20049;-89
2022/09/29 10:10:31;;;;;;;85.85;41.83;;;;;;;17.98;45.58;91997.81;5045469;28;20064;-90
2022/09/29 10:13:07;;;;;;;75.07;40.03;;;;;;;17.97;45.61;91988.91;5013567;28;20095;-89
2022/09/29 10:15:36;;;;;;;62.22;34.50;;;;;;;17.98;45.75;91986.88;5029948;28;20471;-90
2022/09/29 10:18:05;;;;;;;71.00;37.83;;;;;;;17.98;46.20;91981.44;5040342;28;20036;-90
2022/09/29 10:20:35;;;;;;;73.53;39.75;;;;;;;18.00;45.55;91984.34;5013308;28;20628;-89
2022/09/29 10:23:23;;;;;;;66.20;37.80;;;;;;;17.99;45.76;91980.16;5015039;28;20124;-90
2022/09/29 10:25:53;;;;;;;72.70;35.33;;;;;;;17.98;45.84;91975.94;5033988;28;20045;-89
2022/09/29 10:28:19;;;;;;;344.98;292.05;;;;;;;18.03;45.77;91975.78;5012987;28;20048;-88
2022/09/29 10:30:45;;;;;;;158.27;110.05;;;;;;;18.04;45.60;91977.25;5031589;28;20037;-89
2022/09/29 10:33:15;;;;;;;58.83;34.20;;;;;;;18.07;45.59;91978.19;5041334;28;20055;-90
2022/09/29 10:35:41;;;;;;;53.95;31.40;;;;;;;18.08;45.99;91971.44;5021249;28;20068;-88
2022/09/29 10:38:16;;;;;;;58.42;33.88;;;;;;;18.08;45.90;91968.69;5010109;28;20568;-90
2022/09/29 10:40:56;;;;;;;63.22;35.60;;;;;;;18.06;46.13;91982.91;5030097;28;20040;-89
2022/09/29 10:43:35;;;;;;;59.33;33.27;;;;;;;18.07;45.73;91978.91;5039947;28;20040;-89
2022/09/29 10:46:00;;;;;;;303.02;229.60;;;;;;;18.10;45.52;91974.38;5015049;28;20307;-89
2022/09/29 10:48:26;;;;;;;115.82;79.47;;;;;;;18.10;45.95;91983.31;5052974;28;20037;-90
2022/09/29 10:50:54;;;;;;;51.22;31.58;;;;;;;18.08;45.91;91983.09;5052268;28;20578;-89
2022/09/29 10:53:38;;;;;;;87.03;33.60;;;;;;;18.07;46.02;91978.19;5016644;28;20048;-88
2022/09/29 10:56:19;;;;;;;62.65;30.95;;;;;;;18.07;45.85;91980.91;5046388;28;20118;-89
2022/09/29 10:58:52;;;;;;;58.78;31.58;;;;;;;18.06;45.90;91980.19;4998270;28;20050;-89
2022/09/29 11:01:17;;;;;;;46.15;28.00;;;;;;;18.09;45.79;91986.56;4986580;28;20081;-89
2022/09/29 11:04:00;;;;;;;55.60;28.50;;;;;;;18.07;45.98;91989.84;4995250;28;20464;-89
2022/09/29 11:06:31;;;;;;;48.30;26.38;;;;;;;18.08;45.80;91996.06;4980520;28;20036;-89
2022/09/29 11:09:01;;;;;;;59.40;29.85;;;;;;;18.09;46.00;92006.44;4995576;28;20042;-90
2022/09/29 11:11:39;;;;;;;68.00;31.88;;;;;;;18.09;46.13;91995.50;4994080;28;20034;-89
2022/09/29 11:14:04;;;;;;;48.33;27.42;;;;;;;18.12;45.94;91985.50;4993451;28;20104;-90
2022/09/29 11:16:35;;;;;;;65.13;33.22;;;;;;;18.11;45.68;91995.69;4992040;28;20041;-88
2022/09/29 11:19:11;;;;;;;70.18;33.28;;;;;;;18.11;45.88;91995.69;5008733;28;20061;-88
2022/09/29 11:22:10;;;;;;;62.17;29.35;;;;;;;18.13;46.18;91993.16;4977191;28;20037;-87
2022/09/29 11:24:57;;;;;;;48.90;27.45;;;;;;;18.14;46.17;91994.63;4991465;28;20462;-88
2022/09/29 11:27:50;;;;;;;48.78;24.45;;;;;;;18.11;45.94;91995.69;5018707;28;20053;-88
2022/09/29 11:30:19;;;;;;;48.78;23.15;;;;;;;18.10;45.47;91988.75;4994418;28;20120;-88
2022/09/29 11:32:54;;;;;;;43.35;21.55;;;;;;;18.09;45.24;91992.78;4994147;28;20046;-88
2022/09/29 11:35:22;;;;;;;88.40;28.33;;;;;;;18.12;45.56;91990.97;4989845;28;20033;-88
2022/09/29 11:38:09;;;;;;;60.58;21.70;;;;;;;18.10;44.69;91991.50;5020056;28;20077;-87
2022/09/29 11:40:59;;;;;;;49.25;17.52;;;;;;;18.07;44.57;92002.78;4992871;28;20034;-88
2022/09/29 11:43:29;;;;;;;36.22;15.88;;;;;;;18.04;43.64;92001.13;4993516;28;20069;-90